sensor_id;sensor_type;location;lat;lon;timestamp;pressure;altitude;pressure_sealevel;temperature;humidity
7180;BME280;3631;42.152;24.756;2023-04-02T00:03:03;98427.38;;;10.43;88.64
7180;BME280;3631;42.152;24.756;2023-04-02T00:06:12;98454.94;;;10.46;88.67
7180;BME280;3631;42.152;24.756;2023-04-02T00:09:45;98448.84;;;10.47;87.65
7180;BME280;3631;42.152;24.756;2023-04-02T00:12:36;98453.41;;;10.42;88.30
7180;BME280;3631;42.152;24.756;2023-04-02T00:15:27;98453.88;;;10.31;89.76
7180;BME280;3631;42.152;24.756;2023-04-02T00:18:27;98449.59;;;10.30;89.76
7180;BME280;3631;42.152;24.756;2023-04-02T00:21:47;98456.47;;;10.31;89.64
7180;BME280;3631;42.152;24.756;2023-04-02T00:25:01;98460.19;;;10.26;90.04
7180;BME280;3631;42.152;24.756;2023-04-02T00:27:48;98443.19;;;10.18;90.13
7180;BME280;3631;42.152;24.756;2023-04-02T00:30:57;98438.00;;;10.18;89.25
7180;BME280;3631;42.152;24.756;2023-04-02T00:33:50;98450.56;;;10.28;87.97
7180;BME280;3631;42.152;24.756;2023-04-02T00:36:55;98453.03;;;10.31;87.34
7180;BME280;3631;42.152;24.756;2023-04-02T00:39:48;98454.78;;;10.30;87.59
7180;BME280;3631;42.152;24.756;2023-04-02T00:42:48;98451.09;;;10.36;87.12
7180;BME280;3631;42.152;24.756;2023-04-02T00:45:43;98452.13;;;10.32;86.52
7180;BME280;3631;42.152;24.756;2023-04-02T00:48:49;98456.53;;;10.30;86.18
7180;BME280;3631;42.152;24.756;2023-04-02T00:51:52;98469.66;;;10.27;86.58
7180;BME280;3631;42.152;24.756;2023-04-02T00:55:04;98463.94;;;10.18;87.92
7180;BME280;3631;42.152;24.756;2023-04-02T00:57:54;98464.72;;;10.21;87.88
7180;BME280;3631;42.152;24.756;2023-04-02T01:00:57;98461.22;;;10.22;88.23
7180;BME280;3631;42.152;24.756;2023-04-02T01:04:03;98461.16;;;10.23;88.49
7180;BME280;3631;42.152;24.756;2023-04-02T01:10:12;98465.88;;;10.34;87.85
7180;BME280;3631;42.152;24.756;2023-04-02T01:13:20;98461.41;;;10.37;87.66
7180;BME280;3631;42.152;24.756;2023-04-02T01:16:15;98456.34;;;10.34;87.82
7180;BME280;3631;42.152;24.756;2023-04-02T01:23:06;98476.47;;;10.48;87.07
7180;BME280;3631;42.152;24.756;2023-04-02T01:29:23;98465.69;;;10.38;86.56
7180;BME280;3631;42.152;24.756;2023-04-02T01:32:24;98467.34;;;10.39;85.86
7180;BME280;3631;42.152;24.756;2023-04-02T01:35:35;98470.03;;;10.38;85.41
7180;BME280;3631;42.152;24.756;2023-04-02T01:38:44;98465.09;;;10.32;85.08
7180;BME280;3631;42.152;24.756;2023-04-02T01:41:48;98475.34;;;10.35;85.58
7180;BME280;3631;42.152;24.756;2023-04-02T01:48:38;98482.06;;;10.39;84.65
7180;BME280;3631;42.152;24.756;2023-04-02T01:51:38;98472.09;;;10.30;85.45
7180;BME280;3631;42.152;24.756;2023-04-02T01:54:37;98477.03;;;10.36;84.81
7180;BME280;3631;42.152;24.756;2023-04-02T01:57:43;98477.38;;;10.47;84.66
7180;BME280;3631;42.152;24.756;2023-04-02T02:00:49;98478.28;;;10.46;84.06
7180;BME280;3631;42.152;24.756;2023-04-02T02:03:54;98472.88;;;10.32;84.87
7180;BME280;3631;42.152;24.756;2023-04-02T02:06:50;98467.69;;;10.32;84.39
7180;BME280;3631;42.152;24.756;2023-04-02T02:09:39;98463.28;;;10.34;84.62
7180;BME280;3631;42.152;24.756;2023-04-02T02:12:48;98469.09;;;10.39;84.15
7180;BME280;3631;42.152;24.756;2023-04-02T02:15:55;98455.16;;;10.41;83.70
7180;BME280;3631;42.152;24.756;2023-04-02T02:18:56;98456.84;;;10.42;83.80
7180;BME280;3631;42.152;24.756;2023-04-02T02:21:50;98452.72;;;10.38;83.51
7180;BME280;3631;42.152;24.756;2023-04-02T02:24:50;98447.44;;;10.40;82.36
7180;BME280;3631;42.152;24.756;2023-04-02T02:28:07;98442.41;;;10.37;82.07
7180;BME280;3631;42.152;24.756;2023-04-02T02:30:51;98454.03;;;10.47;79.97
7180;BME280;3631;42.152;24.756;2023-04-02T02:33:52;98448.44;;;10.56;78.84
7180;BME280;3631;42.152;24.756;2023-04-02T02:36:43;98454.47;;;10.57;78.41
7180;BME280;3631;42.152;24.756;2023-04-02T02:39:37;98455.84;;;10.64;78.03
7180;BME280;3631;42.152;24.756;2023-04-02T02:42:30;98453.91;;;10.69;78.27
7180;BME280;3631;42.152;24.756;2023-04-02T02:45:41;98454.75;;;10.69;77.67
7180;BME280;3631;42.152;24.756;2023-04-02T02:49:08;98469.25;;;10.73;76.54
7180;BME280;3631;42.152;24.756;2023-04-02T02:52:15;98465.66;;;10.76;75.66
7180;BME280;3631;42.152;24.756;2023-04-02T02:55:17;98460.28;;;10.80;75.28
7180;BME280;3631;42.152;24.756;2023-04-02T02:58:10;98462.09;;;10.78;75.40
7180;BME280;3631;42.152;24.756;2023-04-02T03:00:52;98481.66;;;10.85;75.64
7180;BME280;3631;42.152;24.756;2023-04-02T03:03:47;98477.53;;;10.81;76.90
7180;BME280;3631;42.152;24.756;2023-04-02T03:07:01;98476.53;;;10.65;78.12
7180;BME280;3631;42.152;24.756;2023-04-02T03:10:03;98477.16;;;10.51;80.31
7180;BME280;3631;42.152;24.756;2023-04-02T03:12:58;98475.41;;;10.33;82.33
7180;BME280;3631;42.152;24.756;2023-04-02T03:16:10;98459.28;;;10.27;84.02
7180;BME280;3631;42.152;24.756;2023-04-02T03:19:44;98474.50;;;10.34;84.36
7180;BME280;3631;42.152;24.756;2023-04-02T03:26:18;98472.53;;;10.39;86.07
7180;BME280;3631;42.152;24.756;2023-04-02T03:29:32;98462.78;;;10.44;86.29
7180;BME280;3631;42.152;24.756;2023-04-02T03:32:24;98478.16;;;10.49;86.37
7180;BME280;3631;42.152;24.756;2023-04-02T03:35:28;98480.88;;;10.46;87.26
7180;BME280;3631;42.152;24.756;2023-04-02T03:38:33;98487.75;;;10.47;87.90
7180;BME280;3631;42.152;24.756;2023-04-02T03:42:04;98489.56;;;10.45;88.23
7180;BME280;3631;42.152;24.756;2023-04-02T03:45:32;98481.25;;;10.38;88.83
7180;BME280;3631;42.152;24.756;2023-04-02T03:48:33;98492.53;;;10.37;89.57
7180;BME280;3631;42.152;24.756;2023-04-02T03:51:49;98501.53;;;10.29;90.23
7180;BME280;3631;42.152;24.756;2023-04-02T03:54:59;98502.53;;;10.26;91.13
7180;BME280;3631;42.152;24.756;2023-04-02T03:57:57;98487.53;;;10.12;91.58
7180;BME280;3631;42.152;24.756;2023-04-02T04:00:59;98495.94;;;10.17;91.96
7180;BME280;3631;42.152;24.756;2023-04-02T04:03:37;98490.72;;;10.19;91.62
7180;BME280;3631;42.152;24.756;2023-04-02T04:06:33;98488.06;;;10.21;91.13
7180;BME280;3631;42.152;24.756;2023-04-02T04:09:32;98497.97;;;10.11;92.87
7180;BME280;3631;42.152;24.756;2023-04-02T04:12:20;98491.94;;;10.10;93.20
7180;BME280;3631;42.152;24.756;2023-04-02T04:15:04;98492.34;;;10.01;95.03
7180;BME280;3631;42.152;24.756;2023-04-02T04:17:51;98493.41;;;9.96;95.35
7180;BME280;3631;42.152;24.756;2023-04-02T04:20:27;98501.91;;;9.99;95.96
7180;BME280;3631;42.152;24.756;2023-04-02T04:23:18;98502.72;;;10.01;95.79
7180;BME280;3631;42.152;24.756;2023-04-02T04:26:13;98505.81;;;10.09;95.17
7180;BME280;3631;42.152;24.756;2023-04-02T04:28:55;98503.88;;;10.14;93.89
7180;BME280;3631;42.152;24.756;2023-04-02T04:31:46;98508.91;;;10.17;93.93
7180;BME280;3631;42.152;24.756;2023-04-02T04:34:24;98514.72;;;10.24;93.76
7180;BME280;3631;42.152;24.756;2023-04-02T04:37:13;98511.16;;;10.27;93.20
7180;BME280;3631;42.152;24.756;2023-04-02T04:39:59;98509.97;;;10.34;92.70
7180;BME280;3631;42.152;24.756;2023-04-02T04:42:34;98503.94;;;10.33;92.28
7180;BME280;3631;42.152;24.756;2023-04-02T04:45:24;98502.56;;;10.45;91.63
7180;BME280;3631;42.152;24.756;2023-04-02T04:48:03;98505.00;;;10.48;90.93
7180;BME280;3631;42.152;24.756;2023-04-02T04:50:45;98509.28;;;10.49;90.49
7180;BME280;3631;42.152;24.756;2023-04-02T04:53:25;98508.16;;;10.54;89.94
7180;BME280;3631;42.152;24.756;2023-04-02T04:56:00;98509.66;;;10.60;89.17
7180;BME280;3631;42.152;24.756;2023-04-02T04:58:47;98509.06;;;10.72;88.08
7180;BME280;3631;42.152;24.756;2023-04-02T05:01:39;98514.13;;;10.75;87.69
7180;BME280;3631;42.152;24.756;2023-04-02T05:04:24;98515.97;;;10.73;87.72
7180;BME280;3631;42.152;24.756;2023-04-02T05:07:02;98519.00;;;10.83;86.59
7180;BME280;3631;42.152;24.756;2023-04-02T05:09:43;98526.50;;;10.89;85.88
7180;BME280;3631;42.152;24.756;2023-04-02T05:12:25;98530.94;;;11.06;84.42
7180;BME280;3631;42.152;24.756;2023-04-02T05:15:18;98535.03;;;11.10;83.26
7180;BME280;3631;42.152;24.756;2023-04-02T05:18:19;98530.06;;;11.24;81.69
7180;BME280;3631;42.152;24.756;2023-04-02T05:21:14;98541.91;;;11.29;81.15
7180;BME280;3631;42.152;24.756;2023-04-02T05:23:52;98532.84;;;11.38;80.58
7180;BME280;3631;42.152;24.756;2023-04-02T05:26:39;98537.72;;;11.44;80.62
7180;BME280;3631;42.152;24.756;2023-04-02T05:29:19;98537.97;;;11.40;80.79
7180;BME280;3631;42.152;24.756;2023-04-02T05:32:02;98539.09;;;11.34;80.84
7180;BME280;3631;42.152;24.756;2023-04-02T05:34:40;98539.88;;;11.36;80.87
7180;BME280;3631;42.152;24.756;2023-04-02T05:37:29;98540.38;;;11.61;79.63
7180;BME280;3631;42.152;24.756;2023-04-02T05:40:18;98549.69;;;11.84;77.96
7180;BME280;3631;42.152;24.756;2023-04-02T05:42:59;98547.75;;;12.22;75.07
7180;BME280;3631;42.152;24.756;2023-04-02T05:45:51;98543.53;;;12.70;72.17
7180;BME280;3631;42.152;24.756;2023-04-02T05:48:33;98561.22;;;13.75;66.82
7180;BME280;3631;42.152;24.756;2023-04-02T05:51:13;98551.09;;;14.59;63.06
7180;BME280;3631;42.152;24.756;2023-04-02T05:53:59;98549.09;;;15.19;59.42
7180;BME280;3631;42.152;24.756;2023-04-02T05:56:41;98556.97;;;15.46;57.69
7180;BME280;3631;42.152;24.756;2023-04-02T05:59:18;98554.41;;;15.85;56.32
7180;BME280;3631;42.152;24.756;2023-04-02T06:02:21;98557.84;;;16.25;54.17
7180;BME280;3631;42.152;24.756;2023-04-02T06:05:15;98563.53;;;16.45;52.53
7180;BME280;3631;42.152;24.756;2023-04-02T06:08:09;98573.91;;;16.84;51.79
7180;BME280;3631;42.152;24.756;2023-04-02T06:11:03;98581.88;;;17.45;50.51
7180;BME280;3631;42.152;24.756;2023-04-02T06:14:08;98586.56;;;17.89;48.61
7180;BME280;3631;42.152;24.756;2023-04-02T06:17:02;98584.88;;;17.88;47.92
7180;BME280;3631;42.152;24.756;2023-04-02T06:19:52;98576.63;;;17.45;49.21
7180;BME280;3631;42.152;24.756;2023-04-02T06:23:00;98573.16;;;17.08;50.00
7180;BME280;3631;42.152;24.756;2023-04-02T06:28:49;98572.53;;;16.41;51.53
7180;BME280;3631;42.152;24.756;2023-04-02T06:31:35;98579.78;;;15.97;52.73
7180;BME280;3631;42.152;24.756;2023-04-02T06:34:22;98584.75;;;15.75;53.73
7180;BME280;3631;42.152;24.756;2023-04-02T06:37:11;98583.84;;;15.62;54.82
7180;BME280;3631;42.152;24.756;2023-04-02T06:39:59;98594.78;;;15.69;54.43
7180;BME280;3631;42.152;24.756;2023-04-02T06:42:41;98600.66;;;15.58;54.67
7180;BME280;3631;42.152;24.756;2023-04-02T06:45:32;98597.38;;;15.69;54.70
7180;BME280;3631;42.152;24.756;2023-04-02T06:48:17;98602.31;;;15.73;53.89
7180;BME280;3631;42.152;24.756;2023-04-02T06:51:06;98599.03;;;15.70;53.35
7180;BME280;3631;42.152;24.756;2023-04-02T06:53:47;98599.53;;;15.62;53.27
7180;BME280;3631;42.152;24.756;2023-04-02T06:56:43;98602.72;;;15.67;53.21
7180;BME280;3631;42.152;24.756;2023-04-02T06:59:33;98601.03;;;15.66;53.20
7180;BME280;3631;42.152;24.756;2023-04-02T07:02:32;98607.38;;;15.62;51.95
7180;BME280;3631;42.152;24.756;2023-04-02T07:05:53;98612.03;;;15.71;51.11
7180;BME280;3631;42.152;24.756;2023-04-02T07:08:47;98605.47;;;15.78;50.33
7180;BME280;3631;42.152;24.756;2023-04-02T07:11:48;98616.31;;;15.72;51.02
7180;BME280;3631;42.152;24.756;2023-04-02T07:14:53;98613.66;;;15.86;50.96
7180;BME280;3631;42.152;24.756;2023-04-02T07:17:46;98619.84;;;15.85;50.78
7180;BME280;3631;42.152;24.756;2023-04-02T07:20:59;98620.34;;;15.78;51.07
7180;BME280;3631;42.152;24.756;2023-04-02T07:24:04;98625.66;;;15.76;50.90
7180;BME280;3631;42.152;24.756;2023-04-02T07:26:56;98628.09;;;15.79;50.93
7180;BME280;3631;42.152;24.756;2023-04-02T07:29:59;98632.41;;;15.93;50.76
7180;BME280;3631;42.152;24.756;2023-04-02T07:33:01;98634.84;;;15.96;51.61
7180;BME280;3631;42.152;24.756;2023-04-02T07:35:55;98633.81;;;16.38;50.35
7180;BME280;3631;42.152;24.756;2023-04-02T07:38:55;98631.91;;;16.92;49.51
7180;BME280;3631;42.152;24.756;2023-04-02T07:41:54;98643.28;;;17.91;46.80
7180;BME280;3631;42.152;24.756;2023-04-02T07:45:07;98647.72;;;18.96;44.05
7180;BME280;3631;42.152;24.756;2023-04-02T07:48:18;98647.31;;;19.89;41.67
7180;BME280;3631;42.152;24.756;2023-04-02T07:51:31;98644.78;;;20.63;40.04
7180;BME280;3631;42.152;24.756;2023-04-02T07:54:23;98643.31;;;21.61;37.99
7180;BME280;3631;42.152;24.756;2023-04-02T07:57:27;98642.34;;;22.41;35.85
7180;BME280;3631;42.152;24.756;2023-04-02T08:00:17;98630.03;;;23.25;34.38
7180;BME280;3631;42.152;24.756;2023-04-02T08:03:17;98639.94;;;23.33;33.61
7180;BME280;3631;42.152;24.756;2023-04-02T08:06:06;98631.69;;;23.36;33.19
7180;BME280;3631;42.152;24.756;2023-04-02T08:09:14;98631.84;;;23.34;32.67
7180;BME280;3631;42.152;24.756;2023-04-02T08:15:26;98634.63;;;23.87;32.15
7180;BME280;3631;42.152;24.756;2023-04-02T08:18:51;98630.03;;;23.62;32.28
7180;BME280;3631;42.152;24.756;2023-04-02T08:21:39;98635.28;;;23.72;32.36
7180;BME280;3631;42.152;24.756;2023-04-02T08:24:42;98629.41;;;24.67;31.22
7180;BME280;3631;42.152;24.756;2023-04-02T08:27:54;98637.72;;;25.83;29.91
7180;BME280;3631;42.152;24.756;2023-04-02T08:30:50;98620.91;;;27.29;27.76
7180;BME280;3631;42.152;24.756;2023-04-02T08:33:54;98631.84;;;28.43;26.28
7180;BME280;3631;42.152;24.756;2023-04-02T08:36:56;98621.63;;;30.23;24.11
7180;BME280;3631;42.152;24.756;2023-04-02T08:39:54;98628.81;;;30.01;23.91
7180;BME280;3631;42.152;24.756;2023-04-02T08:42:56;98622.72;;;29.42;24.21
7180;BME280;3631;42.152;24.756;2023-04-02T08:46:00;98622.25;;;27.25;26.05
7180;BME280;3631;42.152;24.756;2023-04-02T08:49:07;98614.44;;;25.09;28.54
7180;BME280;3631;42.152;24.756;2023-04-02T08:52:09;98595.63;;;24.15;29.74
7180;BME280;3631;42.152;24.756;2023-04-02T08:55:17;98603.44;;;23.27;30.62
7180;BME280;3631;42.152;24.756;2023-04-02T08:58:48;98603.97;;;23.30;30.73
7180;BME280;3631;42.152;24.756;2023-04-02T09:05:05;98608.38;;;22.36;31.17
7180;BME280;3631;42.152;24.756;2023-04-02T09:08:00;98601.34;;;22.84;30.88
7180;BME280;3631;42.152;24.756;2023-04-02T09:11:08;98606.44;;;23.04;30.95
7180;BME280;3631;42.152;24.756;2023-04-02T09:14:15;98595.22;;;22.73;31.32
7180;BME280;3631;42.152;24.756;2023-04-02T09:17:24;98594.34;;;22.17;32.39
7180;BME280;3631;42.152;24.756;2023-04-02T09:20:54;98582.47;;;21.92;32.59
7180;BME280;3631;42.152;24.756;2023-04-02T09:23:44;98580.56;;;22.23;32.36
7180;BME280;3631;42.152;24.756;2023-04-02T09:26:48;98574.44;;;22.32;32.73
7180;BME280;3631;42.152;24.756;2023-04-02T09:29:52;98573.84;;;22.48;32.91
7180;BME280;3631;42.152;24.756;2023-04-02T09:32:57;98579.00;;;23.05;32.23
7180;BME280;3631;42.152;24.756;2023-04-02T09:36:16;98572.41;;;23.92;31.44
7180;BME280;3631;42.152;24.756;2023-04-02T09:39:03;98567.50;;;24.58;30.15
7180;BME280;3631;42.152;24.756;2023-04-02T09:42:37;98568.69;;;24.89;29.97
7180;BME280;3631;42.152;24.756;2023-04-02T09:45:23;98570.41;;;26.80;28.02
7180;BME280;3631;42.152;24.756;2023-04-02T09:48:27;98573.94;;;29.40;24.93
7180;BME280;3631;42.152;24.756;2023-04-02T09:51:21;98566.72;;;29.91;23.74
7180;BME280;3631;42.152;24.756;2023-04-02T09:54:13;98559.56;;;28.97;24.68
7180;BME280;3631;42.152;24.756;2023-04-02T09:56:58;98562.88;;;27.78;25.41
7180;BME280;3631;42.152;24.756;2023-04-02T09:59:36;98555.81;;;26.11;26.21
7180;BME280;3631;42.152;24.756;2023-04-02T10:02:38;98552.25;;;24.86;27.48
7180;BME280;3631;42.152;24.756;2023-04-02T10:05:44;98557.31;;;24.10;28.12
7180;BME280;3631;42.152;24.756;2023-04-02T10:11:37;98545.16;;;23.36;28.90
7180;BME280;3631;42.152;24.756;2023-04-02T10:14:18;98527.81;;;23.14;28.97
7180;BME280;3631;42.152;24.756;2023-04-02T10:17:09;98542.19;;;22.75;28.26
7180;BME280;3631;42.152;24.756;2023-04-02T10:20:07;98536.00;;;22.57;27.94
7180;BME280;3631;42.152;24.756;2023-04-02T10:22:52;98529.88;;;22.37;28.64
7180;BME280;3631;42.152;24.756;2023-04-02T10:25:31;98530.50;;;22.12;28.47
7180;BME280;3631;42.152;24.756;2023-04-02T10:28:21;98525.50;;;21.99;28.80
7180;BME280;3631;42.152;24.756;2023-04-02T10:31:03;98521.56;;;21.93;28.82
7180;BME280;3631;42.152;24.756;2023-04-02T10:33:44;98508.50;;;21.92;29.15
7180;BME280;3631;42.152;24.756;2023-04-02T10:36:25;98510.44;;;21.90;29.53
7180;BME280;3631;42.152;24.756;2023-04-02T10:39:32;98517.69;;;21.78;30.41
7180;BME280;3631;42.152;24.756;2023-04-02T10:42:25;98523.50;;;21.53;31.33
7180;BME280;3631;42.152;24.756;2023-04-02T10:48:49;98522.41;;;21.55;30.59
7180;BME280;3631;42.152;24.756;2023-04-02T10:51:57;98517.25;;;21.44;30.09
7180;BME280;3631;42.152;24.756;2023-04-02T10:54:56;98506.38;;;21.37;30.62
7180;BME280;3631;42.152;24.756;2023-04-02T10:57:50;98494.59;;;21.32;31.01
7180;BME280;3631;42.152;24.756;2023-04-02T11:00:55;98497.50;;;21.48;28.81
7180;BME280;3631;42.152;24.756;2023-04-02T11:04:10;98500.84;;;21.50;28.34
7180;BME280;3631;42.152;24.756;2023-04-02T11:07:18;98497.25;;;21.70;29.08
7180;BME280;3631;42.152;24.756;2023-04-02T11:10:15;98498.34;;;21.58;29.75
7180;BME280;3631;42.152;24.756;2023-04-02T11:13:16;98487.78;;;21.58;30.03
7180;BME280;3631;42.152;24.756;2023-04-02T11:16:11;98485.44;;;21.55;30.27
7180;BME280;3631;42.152;24.756;2023-04-02T11:22:53;98477.09;;;21.50;30.51
7180;BME280;3631;42.152;24.756;2023-04-02T11:25:52;98477.09;;;21.50;30.51
7180;BME280;3631;42.152;24.756;2023-04-02T11:29:31;98478.50;;;21.54;30.30
7180;BME280;3631;42.152;24.756;2023-04-02T11:32:41;98475.69;;;21.46;30.06
7180;BME280;3631;42.152;24.756;2023-04-02T11:35:38;98469.59;;;21.55;30.32
7180;BME280;3631;42.152;24.756;2023-04-02T11:39:03;98457.50;;;21.53;30.55
7180;BME280;3631;42.152;24.756;2023-04-02T11:42:28;98456.81;;;21.41;30.63
7180;BME280;3631;42.152;24.756;2023-04-02T11:48:48;98452.13;;;21.05;31.34
7180;BME280;3631;42.152;24.756;2023-04-02T11:51:57;98447.41;;;20.98;31.19
7180;BME280;3631;42.152;24.756;2023-04-02T11:54:43;98432.66;;;20.86;31.58
7180;BME280;3631;42.152;24.756;2023-04-02T11:57:24;98432.47;;;20.78;31.58
7180;BME280;3631;42.152;24.756;2023-04-02T12:00:11;98439.75;;;20.86;31.61
7180;BME280;3631;42.152;24.756;2023-04-02T12:03:09;98434.47;;;20.86;31.61
7180;BME280;3631;42.152;24.756;2023-04-02T12:05:52;98436.25;;;20.85;31.84
7180;BME280;3631;42.152;24.756;2023-04-02T12:08:35;98434.72;;;20.83;31.64
7180;BME280;3631;42.152;24.756;2023-04-02T12:11:37;98428.88;;;20.79;31.75
7180;BME280;3631;42.152;24.756;2023-04-02T12:14:54;98423.34;;;20.82;31.99
7180;BME280;3631;42.152;24.756;2023-04-02T12:17:44;98430.56;;;20.80;32.11
7180;BME280;3631;42.152;24.756;2023-04-02T12:20:50;98433.06;;;20.82;32.06
7180;BME280;3631;42.152;24.756;2023-04-02T12:23:35;98428.34;;;20.85;32.31
7180;BME280;3631;42.152;24.756;2023-04-02T12:26:22;98409.56;;;20.69;31.94
7180;BME280;3631;42.152;24.756;2023-04-02T12:29:27;98390.63;;;20.54;32.24
7180;BME280;3631;42.152;24.756;2023-04-02T12:32:22;98421.78;;;20.70;32.43
7180;BME280;3631;42.152;24.756;2023-04-02T12:35:20;98431.72;;;20.57;32.34
7180;BME280;3631;42.152;24.756;2023-04-02T12:38:31;98406.75;;;20.51;32.18
7180;BME280;3631;42.152;24.756;2023-04-02T12:41:39;98415.19;;;20.55;32.40
7180;BME280;3631;42.152;24.756;2023-04-02T12:44:51;98414.94;;;20.58;32.38
7180;BME280;3631;42.152;24.756;2023-04-02T12:47:46;98410.72;;;20.76;32.08
7180;BME280;3631;42.152;24.756;2023-04-02T12:50:35;98410.94;;;20.63;32.13
7180;BME280;3631;42.152;24.756;2023-04-02T12:53:21;98404.00;;;20.62;31.80
7180;BME280;3631;42.152;24.756;2023-04-02T12:56:30;98420.38;;;20.66;32.04
7180;BME280;3631;42.152;24.756;2023-04-02T12:59:33;98406.88;;;20.50;32.34
7180;BME280;3631;42.152;24.756;2023-04-02T13:02:46;98404.09;;;20.51;32.94
7180;BME280;3631;42.152;24.756;2023-04-02T13:05:37;98414.94;;;20.58;32.76
7180;BME280;3631;42.152;24.756;2023-04-02T13:08:39;98412.19;;;20.59;32.91
7180;BME280;3631;42.152;24.756;2023-04-02T13:11:24;98401.16;;;20.45;32.91
7180;BME280;3631;42.152;24.756;2023-04-02T13:14:19;98415.50;;;20.52;33.33
7180;BME280;3631;42.152;24.756;2023-04-02T13:24:02;98405.19;;;20.49;33.40
7180;BME280;3631;42.152;24.756;2023-04-02T13:26:57;98406.03;;;20.49;34.31
7180;BME280;3631;42.152;24.756;2023-04-02T13:29:57;98407.13;;;20.47;33.62
7180;BME280;3631;42.152;24.756;2023-04-02T13:33:01;98403.53;;;20.48;33.83
7180;BME280;3631;42.152;24.756;2023-04-02T13:36:16;98400.66;;;20.60;35.11
7180;BME280;3631;42.152;24.756;2023-04-02T13:39:20;98393.47;;;20.62;35.03
7180;BME280;3631;42.152;24.756;2023-04-02T13:42:36;98391.09;;;20.59;34.29
7180;BME280;3631;42.152;24.756;2023-04-02T13:45:38;98389.41;;;20.58;34.42
7180;BME280;3631;42.152;24.756;2023-04-02T13:52:18;98389.72;;;20.65;35.20
7180;BME280;3631;42.152;24.756;2023-04-02T13:55:30;98388.72;;;20.66;34.39
7180;BME280;3631;42.152;24.756;2023-04-02T13:58:34;98400.41;;;20.73;34.59
7180;BME280;3631;42.152;24.756;2023-04-02T14:02:01;98386.66;;;20.70;34.98
7180;BME280;3631;42.152;24.756;2023-04-02T14:05:05;98392.88;;;20.59;34.00
7180;BME280;3631;42.152;24.756;2023-04-02T14:08:36;98396.34;;;20.59;33.93
7180;BME280;3631;42.152;24.756;2023-04-02T14:11:42;98398.03;;;20.60;34.46
7180;BME280;3631;42.152;24.756;2023-04-02T14:18:11;98391.66;;;20.63;34.00
7180;BME280;3631;42.152;24.756;2023-04-02T14:21:29;98398.88;;;20.61;33.71
7180;BME280;3631;42.152;24.756;2023-04-02T14:27:59;98386.63;;;20.50;33.71
7180;BME280;3631;42.152;24.756;2023-04-02T14:31:02;98397.56;;;20.46;34.04
7180;BME280;3631;42.152;24.756;2023-04-02T14:34:08;98394.91;;;20.46;34.12
7180;BME280;3631;42.152;24.756;2023-04-02T14:37:22;98386.59;;;20.41;34.22
7180;BME280;3631;42.152;24.756;2023-04-02T14:40:37;98392.81;;;20.40;34.31
7180;BME280;3631;42.152;24.756;2023-04-02T14:43:49;98398.41;;;20.25;33.92
7180;BME280;3631;42.152;24.756;2023-04-02T14:47:07;98399.78;;;20.20;34.03
7180;BME280;3631;42.152;24.756;2023-04-02T14:50:27;98398.16;;;20.28;33.81
7180;BME280;3631;42.152;24.756;2023-04-02T14:53:39;98388.13;;;20.22;33.80
7180;BME280;3631;42.152;24.756;2023-04-02T14:56:54;98391.81;;;20.31;33.77
7180;BME280;3631;42.152;24.756;2023-04-02T14:59:58;98386.16;;;20.36;33.54
7180;BME280;3631;42.152;24.756;2023-04-02T15:02:53;98393.81;;;20.48;33.21
7180;BME280;3631;42.152;24.756;2023-04-02T15:06:03;98383.03;;;20.51;33.13
7180;BME280;3631;42.152;24.756;2023-04-02T15:09:04;98393.38;;;20.43;33.74
7180;BME280;3631;42.152;24.756;2023-04-02T15:12:09;98398.47;;;20.35;33.49
7180;BME280;3631;42.152;24.756;2023-04-02T15:15:03;98385.81;;;20.29;33.67
7180;BME280;3631;42.152;24.756;2023-04-02T15:17:45;98400.47;;;20.43;33.33
7180;BME280;3631;42.152;24.756;2023-04-02T15:20:19;98401.13;;;20.35;33.44
7180;BME280;3631;42.152;24.756;2023-04-02T15:23:19;98402.88;;;20.35;33.25
7180;BME280;3631;42.152;24.756;2023-04-02T15:26:17;98408.16;;;20.35;33.24
7180;BME280;3631;42.152;24.756;2023-04-02T15:29:15;98411.22;;;20.30;33.31
7180;BME280;3631;42.152;24.756;2023-04-02T15:32:25;98407.88;;;20.28;33.46
7180;BME280;3631;42.152;24.756;2023-04-02T17:12:42;98462.47;;;17.87;36.63
7180;BME280;3631;42.152;24.756;2023-04-02T17:15:21;98464.50;;;17.83;36.98
7180;BME280;3631;42.152;24.756;2023-04-02T17:18:15;98462.81;;;17.82;37.04
7180;BME280;3631;42.152;24.756;2023-04-02T17:21:03;98457.06;;;17.77;36.79
7180;BME280;3631;42.152;24.756;2023-04-02T17:23:50;98478.31;;;17.85;37.03
7180;BME280;3631;42.152;24.756;2023-04-02T17:26:31;98479.44;;;17.94;37.26
7180;BME280;3631;42.152;24.756;2023-04-02T17:29:24;98491.72;;;17.93;37.06
7180;BME280;3631;42.152;24.756;2023-04-02T17:32:14;98492.31;;;17.97;37.76
7180;BME280;3631;42.152;24.756;2023-04-02T17:35:15;98502.94;;;17.95;37.14
7180;BME280;3631;42.152;24.756;2023-04-02T17:38:05;98503.41;;;17.89;37.88
7180;BME280;3631;42.152;24.756;2023-04-02T17:40:52;98508.97;;;17.85;37.40
7180;BME280;3631;42.152;24.756;2023-04-02T17:43:45;98514.22;;;17.85;37.43
7180;BME280;3631;42.152;24.756;2023-04-02T17:46:51;98525.19;;;17.78;37.82
7180;BME280;3631;42.152;24.756;2023-04-02T17:49:48;98525.56;;;17.85;37.55
7180;BME280;3631;42.152;24.756;2023-04-02T17:52:37;98536.81;;;17.87;37.92
7180;BME280;3631;42.152;24.756;2023-04-02T17:55:17;98531.56;;;17.87;37.95
7180;BME280;3631;42.152;24.756;2023-04-02T17:58:11;98537.38;;;17.80;37.87
7180;BME280;3631;42.152;24.756;2023-04-02T18:01:05;98538.16;;;17.69;37.90
7180;BME280;3631;42.152;24.756;2023-04-02T18:04:14;98546.38;;;17.64;38.13
7180;BME280;3631;42.152;24.756;2023-04-02T18:07:27;98543.44;;;17.56;38.34
7180;BME280;3631;42.152;24.756;2023-04-02T18:10:18;98553.09;;;17.56;38.13
7180;BME280;3631;42.152;24.756;2023-04-02T18:12:56;98545.44;;;17.53;38.76
7180;BME280;3631;42.152;24.756;2023-04-02T18:18:57;98540.34;;;17.38;38.88
7180;BME280;3631;42.152;24.756;2023-04-02T18:21:53;98541.06;;;17.40;38.88
7180;BME280;3631;42.152;24.756;2023-04-02T18:24:49;98554.44;;;17.37;38.85
7180;BME280;3631;42.152;24.756;2023-04-02T18:27:46;98541.84;;;17.30;39.15
7180;BME280;3631;42.152;24.756;2023-04-02T18:30:25;98548.38;;;17.24;39.37
7180;BME280;3631;42.152;24.756;2023-04-02T18:33:24;98553.94;;;17.20;39.27
7180;BME280;3631;42.152;24.756;2023-04-02T18:36:06;98559.31;;;17.05;39.46